sensor_id;sensor_type;location;lat;lon;timestamp;pressure;altitude;pressure_sealevel;temperature;humidity
65329;BME280;51941;52.210;5.158;2023-07-31T00:00:47;100872.22;;;16.22;100.00
65329;BME280;51941;52.210;5.158;2023-07-31T00:03:14;100873.81;;;16.23;100.00
65329;BME280;51941;52.210;5.158;2023-07-31T00:05:41;100876.22;;;16.30;100.00
65329;BME280;51941;52.210;5.158;2023-07-31T00:08:07;100864.75;;;16.29;100.00
65329;BME280;51941;52.210;5.158;2023-07-31T00:10:34;100868.47;;;16.34;100.00
65329;BME280;51941;52.210;5.158;2023-07-31T00:13:02;100869.00;;;16.36;100.00
65329;BME280;51941;52.210;5.158;2023-07-31T00:15:29;100867.16;;;16.41;100.00
65329;BME280;51941;52.210;5.158;2023-07-31T00:17:56;100851.38;;;16.40;100.00
65329;BME280;51941;52.210;5.158;2023-07-31T00:20:23;100858.31;;;16.46;100.00
65329;BME280;51941;52.210;5.158;2023-07-31T00:22:50;100857.78;;;16.49;100.00
65329;BME280;51941;52.210;5.158;2023-07-31T00:25:16;100864.19;;;16.53;100.00
65329;BME280;51941;52.210;5.158;2023-07-31T00:27:43;100855.38;;;16.57;100.00
65329;BME280;51941;52.210;5.158;2023-07-31T00:30:12;100852.94;;;16.61;100.00
65329;BME280;51941;52.210;5.158;2023-07-31T00:32:39;100856.72;;;16.65;100.00
65329;BME280;51941;52.210;5.158;2023-07-31T00:35:06;100851.06;;;16.61;100.00
65329;BME280;51941;52.210;5.158;2023-07-31T00:37:33;100851.09;;;16.66;100.00
65329;BME280;51941;52.210;5.158;2023-07-31T00:40:00;100842.25;;;16.71;100.00
65329;BME280;51941;52.210;5.158;2023-07-31T00:42:29;100848.94;;;16.68;100.00
65329;BME280;51941;52.210;5.158;2023-07-31T00:44:56;100848.69;;;16.70;100.00
65329;BME280;51941;52.210;5.158;2023-07-31T00:47:24;100856.44;;;16.72;100.00
65329;BME280;51941;52.210;5.158;2023-07-31T00:49:52;100839.06;;;16.69;100.00
65329;BME280;51941;52.210;5.158;2023-07-31T00:52:19;100858.56;;;16.75;100.00
65329;BME280;51941;52.210;5.158;2023-07-31T00:54:47;100851.88;;;16.72;100.00
65329;BME280;51941;52.210;5.158;2023-07-31T00:57:15;100851.09;;;16.66;100.00
65329;BME280;51941;52.210;5.158;2023-07-31T00:59:42;100858.31;;;16.66;100.00
65329;BME280;51941;52.210;5.158;2023-07-31T01:02:08;100860.19;;;16.65;100.00
65329;BME280;51941;52.210;5.158;2023-07-31T01:04:37;100862.03;;;16.60;100.00
65329;BME280;51941;52.210;5.158;2023-07-31T01:07:11;100855.34;;;16.52;100.00
65329;BME280;51941;52.210;5.158;2023-07-31T01:09:44;100861.25;;;16.54;100.00
65329;BME280;51941;52.210;5.158;2023-07-31T01:12:14;100860.16;;;16.50;100.00
65329;BME280;51941;52.210;5.158;2023-07-31T01:14:51;100852.97;;;16.46;100.00
65329;BME280;51941;52.210;5.158;2023-07-31T01:17:18;100845.47;;;16.43;100.00
65329;BME280;51941;52.210;5.158;2023-07-31T01:19:47;100828.94;;;16.36;100.00
65329;BME280;51941;52.210;5.158;2023-07-31T01:22:33;100836.94;;;16.36;100.00
65329;BME280;51941;52.210;5.158;2023-07-31T01:25:15;100838.28;;;16.33;100.00
65329;BME280;51941;52.210;5.158;2023-07-31T01:27:53;100836.97;;;16.30;100.00
65329;BME280;51941;52.210;5.158;2023-07-31T01:30:28;100846.56;;;16.32;100.00
65329;BME280;51941;52.210;5.158;2023-07-31T01:32:59;100833.75;;;16.28;100.00
65329;BME280;51941;52.210;5.158;2023-07-31T01:35:28;100833.22;;;16.32;100.00
65329;BME280;51941;52.210;5.158;2023-07-31T01:37:55;100847.88;;;16.34;100.00
65329;BME280;51941;52.210;5.158;2023-07-31T01:40:22;100834.28;;;16.36;100.00
65329;BME280;51941;52.210;5.158;2023-07-31T01:42:50;100835.88;;;16.37;100.00
65329;BME280;51941;52.210;5.158;2023-07-31T01:45:17;100836.66;;;16.42;100.00
65329;BME280;51941;52.210;5.158;2023-07-31T01:47:44;100840.66;;;16.45;100.00
65329;BME280;51941;52.210;5.158;2023-07-31T01:50:11;100835.34;;;16.45;100.00
65329;BME280;51941;52.210;5.158;2023-07-31T01:52:38;100838.78;;;16.50;100.00
65329;BME280;51941;52.210;5.158;2023-07-31T01:55:05;100832.66;;;16.55;100.00
65329;BME280;51941;52.210;5.158;2023-07-31T01:57:32;100819.00;;;16.51;100.00
65329;BME280;51941;52.210;5.158;2023-07-31T02:00:00;100822.22;;;16.53;100.00
65329;BME280;51941;52.210;5.158;2023-07-31T02:02:37;100821.97;;;16.55;100.00
65329;BME280;51941;52.210;5.158;2023-07-31T02:05:04;100819.25;;;16.60;100.00
65329;BME280;51941;52.210;5.158;2023-07-31T02:07:31;100809.66;;;16.59;100.00
65329;BME280;51941;52.210;5.158;2023-07-31T02:09:58;100810.44;;;16.59;100.00
65329;BME280;51941;52.210;5.158;2023-07-31T02:12:25;100800.84;;;16.63;100.00
65329;BME280;51941;52.210;5.158;2023-07-31T02:14:52;100792.03;;;16.63;100.00
65329;BME280;51941;52.210;5.158;2023-07-31T02:17:20;100793.66;;;16.64;100.00
65329;BME280;51941;52.210;5.158;2023-07-31T02:19:47;100779.97;;;16.60;100.00
65329;BME280;51941;52.210;5.158;2023-07-31T02:22:13;100793.66;;;16.64;100.00
65329;BME280;51941;52.210;5.158;2023-07-31T02:24:40;100786.94;;;16.61;100.00
65329;BME280;51941;52.210;5.158;2023-07-31T02:27:07;100786.13;;;16.61;100.00
65329;BME280;51941;52.210;5.158;2023-07-31T02:29:34;100785.31;;;16.60;100.00
65329;BME280;51941;52.210;5.158;2023-07-31T02:32:00;100792.28;;;16.61;100.00
65329;BME280;51941;52.210;5.158;2023-07-31T02:34:29;100794.94;;;16.61;100.00
65329;BME280;51941;52.210;5.158;2023-07-31T02:36:55;100790.66;;;16.60;100.00
65329;BME280;51941;52.210;5.158;2023-07-31T02:39:23;100789.59;;;16.61;100.00
65329;BME280;51941;52.210;5.158;2023-07-31T02:41:49;100785.09;;;16.62;100.00
65329;BME280;51941;52.210;5.158;2023-07-31T02:44:16;100781.59;;;16.61;100.00
65329;BME280;51941;52.210;5.158;2023-07-31T02:46:43;100775.44;;;16.61;100.00
65329;BME280;51941;52.210;5.158;2023-07-31T02:49:11;100770.91;;;16.61;100.00
65329;BME280;51941;52.210;5.158;2023-07-31T02:51:39;100765.53;;;16.61;100.00
65329;BME280;51941;52.210;5.158;2023-07-31T02:54:06;100766.91;;;16.59;100.00
65329;BME280;51941;52.210;5.158;2023-07-31T02:56:33;100756.22;;;16.59;100.00
65329;BME280;51941;52.210;5.158;2023-07-31T02:58:59;100772.53;;;16.62;100.00
65329;BME280;51941;52.210;5.158;2023-07-31T03:01:26;100772.25;;;16.64;100.00
65329;BME280;51941;52.210;5.158;2023-07-31T03:03:53;100768.78;;;16.63;100.00
65329;BME280;51941;52.210;5.158;2023-07-31T03:06:20;100771.72;;;16.62;100.00
65329;BME280;51941;52.210;5.158;2023-07-31T03:08:47;100767.72;;;16.64;100.00
65329;BME280;51941;52.210;5.158;2023-07-31T03:11:14;100762.88;;;16.61;100.00
65329;BME280;51941;52.210;5.158;2023-07-31T03:13:41;100761.84;;;16.62;100.00
65329;BME280;51941;52.210;5.158;2023-07-31T03:16:07;100759.97;;;16.63;100.00
65329;BME280;51941;52.210;5.158;2023-07-31T03:18:34;100761.03;;;16.62;100.00
65329;BME280;51941;52.210;5.158;2023-07-31T03:21:01;100769.06;;;16.62;100.00
65329;BME280;51941;52.210;5.158;2023-07-31T03:23:28;100762.88;;;16.61;100.00
65329;BME280;51941;52.210;5.158;2023-07-31T03:26:00;100764.78;;;16.66;100.00
65329;BME280;51941;52.210;5.158;2023-07-31T03:28:28;100758.63;;;16.65;100.00
65329;BME280;51941;52.210;5.158;2023-07-31T03:30:55;100757.28;;;16.68;100.00
65329;BME280;51941;52.210;5.158;2023-07-31T03:33:22;100753.81;;;16.67;100.00
65329;BME280;51941;52.210;5.158;2023-07-31T03:35:50;100756.50;;;16.62;100.00
65329;BME280;51941;52.210;5.158;2023-07-31T03:38:17;100755.16;;;16.65;100.00
65329;BME280;51941;52.210;5.158;2023-07-31T03:40:44;100759.97;;;16.63;100.00
65329;BME280;51941;52.210;5.158;2023-07-31T03:43:12;100750.34;;;16.62;100.00
65329;BME280;51941;52.210;5.158;2023-07-31T03:45:39;100753.03;;;16.62;100.00
65329;BME280;51941;52.210;5.158;2023-07-31T03:48:06;100747.09;;;16.60;100.00
65329;BME280;51941;52.210;5.158;2023-07-31T03:50:34;100743.41;;;16.56;100.00
65329;BME280;51941;52.210;5.158;2023-07-31T03:53:00;100750.06;;;16.53;100.00
65329;BME280;51941;52.210;5.158;2023-07-31T03:55:27;100740.19;;;16.54;100.00
65329;BME280;51941;52.210;5.158;2023-07-31T03:57:54;100735.91;;;16.53;100.00
65329;BME280;51941;52.210;5.158;2023-07-31T04:00:22;100734.59;;;16.55;100.00
65329;BME280;51941;52.210;5.158;2023-07-31T04:02:49;100730.84;;;16.56;100.00
65329;BME280;51941;52.210;5.158;2023-07-31T04:05:16;100732.19;;;16.54;100.00
65329;BME280;51941;52.210;5.158;2023-07-31T04:07:42;100731.63;;;16.52;100.00
65329;BME280;51941;52.210;5.158;2023-07-31T04:10:09;100724.69;;;16.51;100.00
65329;BME280;51941;52.210;5.158;2023-07-31T04:12:36;100714.81;;;16.51;100.00
65329;BME280;51941;52.210;5.158;2023-07-31T04:15:03;100713.50;;;16.49;100.00
65329;BME280;51941;52.210;5.158;2023-07-31T04:17:31;100703.09;;;16.47;100.00
65329;BME280;51941;52.210;5.158;2023-07-31T04:19:58;100696.94;;;16.47;100.00
65329;BME280;51941;52.210;5.158;2023-07-31T04:22:25;100698.81;;;16.46;100.00
65329;BME280;51941;52.210;5.158;2023-07-31T04:24:52;100710.25;;;16.52;100.00
65329;BME280;51941;52.210;5.158;2023-07-31T04:27:18;100707.59;;;16.57;100.00
65329;BME280;51941;52.210;5.158;2023-07-31T04:29:45;100712.66;;;16.58;100.00
65329;BME280;51941;52.210;5.158;2023-07-31T04:32:13;100708.13;;;16.59;100.00
65329;BME280;51941;52.210;5.158;2023-07-31T04:34:42;100707.81;;;16.60;100.00
65329;BME280;51941;52.210;5.158;2023-07-31T04:37:09;100705.44;;;16.59;100.00
65329;BME280;51941;52.210;5.158;2023-07-31T04:39:36;100712.66;;;16.58;100.00
65329;BME280;51941;52.210;5.158;2023-07-31T04:42:03;100706.00;;;16.56;100.00
65329;BME280;51941;52.210;5.158;2023-07-31T04:44:30;100714.53;;;16.58;100.00
65329;BME280;51941;52.210;5.158;2023-07-31T04:46:56;100704.91;;;16.57;100.00
65329;BME280;51941;52.210;5.158;2023-07-31T04:49:23;100694.75;;;16.54;100.00
65329;BME280;51941;52.210;5.158;2023-07-31T04:51:51;100697.97;;;16.51;100.00
65329;BME280;51941;52.210;5.158;2023-07-31T04:54:18;100688.88;;;16.52;100.00
65329;BME280;51941;52.210;5.158;2023-07-31T04:56:45;100685.41;;;16.51;100.00
65329;BME280;51941;52.210;5.158;2023-07-31T04:59:12;100681.94;;;16.51;100.00
65329;BME280;51941;52.210;5.158;2023-07-31T05:01:39;100678.78;;;16.49;100.00
65329;BME280;51941;52.210;5.158;2023-07-31T05:04:06;100684.91;;;16.44;100.00
65329;BME280;51941;52.210;5.158;2023-07-31T05:06:33;100681.97;;;16.46;100.00
65329;BME280;51941;52.210;5.158;2023-07-31T05:09:01;100676.09;;;16.44;100.00
65329;BME280;51941;52.210;5.158;2023-07-31T05:11:27;100681.16;;;16.45;100.00
65329;BME280;51941;52.210;5.158;2023-07-31T05:13:54;100680.63;;;16.43;100.00
65329;BME280;51941;52.210;5.158;2023-07-31T05:16:21;100666.78;;;16.41;100.00
65329;BME280;51941;52.210;5.158;2023-07-31T05:18:48;100673.44;;;16.44;100.00
65329;BME280;51941;52.210;5.158;2023-07-31T05:21:15;100667.00;;;16.45;100.00
65329;BME280;51941;52.210;5.158;2023-07-31T05:23:41;100666.47;;;16.43;100.00
65329;BME280;51941;52.210;5.158;2023-07-31T05:26:09;100666.78;;;16.41;100.00
65329;BME280;51941;52.210;5.158;2023-07-31T05:28:36;100660.06;;;16.44;100.00
65329;BME280;51941;52.210;5.158;2023-07-31T05:31:04;100650.50;;;16.33;100.00
65329;BME280;51941;52.210;5.158;2023-07-31T05:33:32;100657.69;;;16.37;100.00
65329;BME280;51941;52.210;5.158;2023-07-31T05:35:59;100653.44;;;16.36;100.00
65329;BME280;51941;52.210;5.158;2023-07-31T05:38:26;100637.66;;;16.35;100.00
65329;BME280;51941;52.210;5.158;2023-07-31T05:40:52;100636.31;;;16.37;100.00
65329;BME280;51941;52.210;5.158;2023-07-31T05:43:21;100637.13;;;16.38;100.00
65329;BME280;51941;52.210;5.158;2023-07-31T05:45:48;100631.78;;;16.38;100.00
65329;BME280;51941;52.210;5.158;2023-07-31T05:48:14;100636.59;;;16.41;100.00
65329;BME280;51941;52.210;5.158;2023-07-31T05:50:43;100632.06;;;16.41;100.00
65329;BME280;51941;52.210;5.158;2023-07-31T05:53:09;100632.59;;;16.38;100.00
65329;BME280;51941;52.210;5.158;2023-07-31T05:55:36;100626.72;;;16.36;100.00
65329;BME280;51941;52.210;5.158;2023-07-31T05:58:03;100625.63;;;16.37;100.00
65329;BME280;51941;52.210;5.158;2023-07-31T06:00:31;100615.75;;;16.38;100.00
65329;BME280;51941;52.210;5.158;2023-07-31T06:02:58;100625.38;;;16.39;100.00
65329;BME280;51941;52.210;5.158;2023-07-31T06:05:25;100623.72;;;16.43;100.00
65329;BME280;51941;52.210;5.158;2023-07-31T06:07:54;100622.66;;;16.44;100.00
65329;BME280;51941;52.210;5.158;2023-07-31T06:10:20;100621.06;;;16.43;100.00
65329;BME280;51941;52.210;5.158;2023-07-31T06:12:47;100616.25;;;16.50;100.00
65329;BME280;51941;52.210;5.158;2023-07-31T06:15:14;100610.34;;;16.53;100.00
65329;BME280;51941;52.210;5.158;2023-07-31T06:17:42;100603.13;;;16.53;100.00
65329;BME280;51941;52.210;5.158;2023-07-31T06:20:09;100601.78;;;16.51;100.00
65329;BME280;51941;52.210;5.158;2023-07-31T06:22:36;100607.13;;;16.51;100.00
65329;BME280;51941;52.210;5.158;2023-07-31T06:25:03;100602.31;;;16.53;100.00
65329;BME280;51941;52.210;5.158;2023-07-31T06:27:30;100606.06;;;16.57;100.00
65329;BME280;51941;52.210;5.158;2023-07-31T06:29:57;100600.72;;;16.57;100.00
65329;BME280;51941;52.210;5.158;2023-07-31T06:32:24;100600.44;;;16.58;100.00
65329;BME280;51941;52.210;5.158;2023-07-31T06:34:52;100591.31;;;16.59;100.00
65329;BME280;51941;52.210;5.158;2023-07-31T06:37:20;100589.72;;;16.63;100.00
65329;BME280;51941;52.210;5.158;2023-07-31T06:39:47;100592.09;;;16.70;100.00
65329;BME280;51941;52.210;5.158;2023-07-31T06:42:14;100590.50;;;16.69;100.00
65329;BME280;51941;52.210;5.158;2023-07-31T06:44:41;100584.34;;;16.74;100.00
65329;BME280;51941;52.210;5.158;2023-07-31T06:47:07;100586.72;;;16.75;100.00
65329;BME280;51941;52.210;5.158;2023-07-31T06:49:34;100586.47;;;16.72;100.00
65329;BME280;51941;52.210;5.158;2023-07-31T06:52:03;100576.03;;;16.75;100.00
65329;BME280;51941;52.210;5.158;2023-07-31T06:54:30;100575.47;;;16.78;100.00
65329;BME280;51941;52.210;5.158;2023-07-31T06:56:56;100568.03;;;16.75;100.00
65329;BME280;51941;52.210;5.158;2023-07-31T06:59:23;100578.41;;;16.82;100.00
65329;BME280;51941;52.210;5.158;2023-07-31T07:01:50;100578.06;;;16.88;100.00
65329;BME280;51941;52.210;5.158;2023-07-31T07:04:16;100572.97;;;16.92;100.00
65329;BME280;51941;52.210;5.158;2023-07-31T07:06:43;100575.28;;;17.03;100.00
65329;BME280;51941;52.210;5.158;2023-07-31T07:09:11;100566.97;;;17.10;100.00
65329;BME280;51941;52.210;5.158;2023-07-31T07:11:38;100570.94;;;17.13;100.00
65329;BME280;51941;52.210;5.158;2023-07-31T07:14:05;100576.81;;;17.15;100.00
65329;BME280;51941;52.210;5.158;2023-07-31T07:16:31;100569.63;;;17.10;100.00
65329;BME280;51941;52.210;5.158;2023-07-31T07:18:58;100568.25;;;17.13;100.00
65329;BME280;51941;52.210;5.158;2023-07-31T07:21:25;100569.31;;;17.17;100.00
65329;BME280;51941;52.210;5.158;2023-07-31T07:23:52;100567.44;;;17.17;100.00
65329;BME280;51941;52.210;5.158;2023-07-31T07:26:20;100569.56;;;17.15;100.00
65329;BME280;51941;52.210;5.158;2023-07-31T07:28:46;100567.44;;;17.12;100.00
65329;BME280;51941;52.210;5.158;2023-07-31T07:31:13;100572.25;;;17.15;100.00
65329;BME280;51941;52.210;5.158;2023-07-31T07:33:40;100569.56;;;17.15;100.00
65329;BME280;51941;52.210;5.158;2023-07-31T07:36:07;100567.66;;;17.21;100.00
65329;BME280;51941;52.210;5.158;2023-07-31T07:38:35;100564.16;;;17.25;100.00
65329;BME280;51941;52.210;5.158;2023-07-31T07:41:02;100569.16;;;17.32;100.00
65329;BME280;51941;52.210;5.158;2023-07-31T07:43:30;100560.59;;;17.35;100.00
65329;BME280;51941;52.210;5.158;2023-07-31T07:45:57;100556.50;;;17.42;100.00
65329;BME280;51941;52.210;5.158;2023-07-31T07:48:23;100558.28;;;17.52;100.00
65329;BME280;51941;52.210;5.158;2023-07-31T07:50:51;100551.56;;;17.55;100.00
65329;BME280;51941;52.210;5.158;2023-07-31T07:53:17;100556.59;;;17.56;100.00
65329;BME280;51941;52.210;5.158;2023-07-31T07:55:44;100554.25;;;17.55;100.00
65329;BME280;51941;52.210;5.158;2023-07-31T07:58:11;100553.16;;;17.56;100.00
65329;BME280;51941;52.210;5.158;2023-07-31T08:00:39;100555.53;;;17.62;100.00
65329;BME280;51941;52.210;5.158;2023-07-31T08:03:06;100547.44;;;17.67;100.00
65329;BME280;51941;52.210;5.158;2023-07-31T08:05:33;100553.22;;;17.74;100.00
65329;BME280;51941;52.210;5.158;2023-07-31T08:08:00;100555.28;;;17.83;100.00
65329;BME280;51941;52.210;5.158;2023-07-31T08:10:27;100551.75;;;17.87;100.00
65329;BME280;51941;52.210;5.158;2023-07-31T08:12:53;100540.78;;;17.89;100.00
65329;BME280;51941;52.210;5.158;2023-07-31T08:15:20;100542.06;;;17.91;100.00
65329;BME280;51941;52.210;5.158;2023-07-31T08:17:48;100538.25;;;17.97;100.00
65329;BME280;51941;52.210;5.158;2023-07-31T08:20:15;100536.31;;;18.03;100.00
65329;BME280;51941;52.210;5.158;2023-07-31T08:22:42;100546.16;;;18.07;100.00
65329;BME280;51941;52.210;5.158;2023-07-31T08:25:09;100545.38;;;18.07;100.00
65329;BME280;51941;52.210;5.158;2023-07-31T08:27:35;100528.34;;;17.98;100.00
65329;BME280;51941;52.210;5.158;2023-07-31T08:30:02;100531.81;;;17.98;100.00
65329;BME280;51941;52.210;5.158;2023-07-31T08:32:29;100528.25;;;18.03;100.00
65329;BME280;51941;52.210;5.158;2023-07-31T08:34:58;100533.84;;;18.06;100.00
65329;BME280;51941;52.210;5.158;2023-07-31T08:37:24;100533.72;;;18.16;100.00
65329;BME280;51941;52.210;5.158;2023-07-31T08:39:51;100533.13;;;18.20;100.00
65329;BME280;51941;52.210;5.158;2023-07-31T08:42:19;100533.81;;;18.30;100.00
65329;BME280;51941;52.210;5.158;2023-07-31T08:44:46;100532.63;;;18.36;100.00
65329;BME280;51941;52.210;5.158;2023-07-31T08:47:14;100528.31;;;18.40;100.00
65329;BME280;51941;52.210;5.158;2023-07-31T08:49:42;100530.97;;;18.40;100.00
65329;BME280;51941;52.210;5.158;2023-07-31T08:52:11;100529.03;;;18.46;100.00
65329;BME280;51941;52.210;5.158;2023-07-31T08:54:38;100529.63;;;18.43;100.00
65329;BME280;51941;52.210;5.158;2023-07-31T08:57:06;100523.91;;;18.49;100.00
65329;BME280;51941;52.210;5.158;2023-07-31T08:59:34;100521.44;;;18.53;100.00
65329;BME280;51941;52.210;5.158;2023-07-31T09:02:06;100533.59;;;18.64;100.00
65329;BME280;51941;52.210;5.158;2023-07-31T09:04:34;100526.78;;;18.72;100.00
65329;BME280;51941;52.210;5.158;2023-07-31T09:07:03;100531.06;;;18.73;100.00
65329;BME280;51941;52.210;5.158;2023-07-31T09:09:31;100528.66;;;18.71;100.00
65329;BME280;51941;52.210;5.158;2023-07-31T09:11:58;100536.13;;;18.74;100.00
65329;BME280;51941;52.210;5.158;2023-07-31T09:14:26;100523.91;;;18.68;100.00
65329;BME280;51941;52.210;5.158;2023-07-31T09:16:53;100524.63;;;18.74;100.00
65329;BME280;51941;52.210;5.158;2023-07-31T09:19:25;100519.81;;;18.71;100.00
65329;BME280;51941;52.210;5.158;2023-07-31T09:21:52;100521.00;;;18.65;100.00
65329;BME280;51941;52.210;5.158;2023-07-31T09:24:25;100511.66;;;18.62;100.00
65329;BME280;51941;52.210;5.158;2023-07-31T09:26:55;100518.59;;;18.63;100.00
65329;BME280;51941;52.210;5.158;2023-07-31T09:29:22;100520.19;;;18.64;100.00
65329;BME280;51941;52.210;5.158;2023-07-31T09:31:50;100513.25;;;18.63;100.00
65329;BME280;51941;52.210;5.158;2023-07-31T09:34:17;100518.53;;;18.68;100.00
65329;BME280;51941;52.210;5.158;2023-07-31T09:36:45;100516.06;;;18.72;100.00
65329;BME280;51941;52.210;5.158;2023-07-31T09:39:14;100523.00;;;18.73;100.00
65329;BME280;51941;52.210;5.158;2023-07-31T09:41:43;100511.28;;;18.69;100.00
65329;BME280;51941;52.210;5.158;2023-07-31T09:44:11;100518.84;;;18.67;100.00
65329;BME280;51941;52.210;5.158;2023-07-31T09:46:38;100512.16;;;18.64;100.00
65329;BME280;51941;52.210;5.158;2023-07-31T09:49:07;100513.66;;;18.70;100.00
65329;BME280;51941;52.210;5.158;2023-07-31T09:51:35;100516.06;;;18.72;100.00
65329;BME280;51941;52.210;5.158;2023-07-31T09:54:10;100515.25;;;18.71;100.00
65329;BME280;51941;52.210;5.158;2023-07-31T09:56:41;100509.69;;;18.68;100.00
65329;BME280;51941;52.210;5.158;2023-07-31T09:59:12;100505.72;;;18.65;100.00
65329;BME280;51941;52.210;5.158;2023-07-31T10:01:40;100514.78;;;18.69;100.00
65329;BME280;51941;52.210;5.158;2023-07-31T10:04:08;100509.59;;;18.73;100.00
65329;BME280;51941;52.210;5.158;2023-07-31T10:06:36;100514.41;;;18.76;100.00
65329;BME280;51941;52.210;5.158;2023-07-31T10:09:05;100513.03;;;18.78;100.00
65329;BME280;51941;52.210;5.158;2023-07-31T10:11:38;100515.09;;;18.81;100.00
65329;BME280;51941;52.210;5.158;2023-07-31T10:14:07;100513.44;;;18.85;100.00
65329;BME280;51941;52.210;5.158;2023-07-31T10:16:38;100518.19;;;18.88;100.00
65329;BME280;51941;52.210;5.158;2023-07-31T10:19:06;100523.88;;;18.87;100.00
65329;BME280;51941;52.210;5.158;2023-07-31T10:21:34;100522.00;;;18.87;100.00
65329;BME280;51941;52.210;5.158;2023-07-31T10:24:03;100514.53;;;18.84;100.00
65329;BME280;51941;52.210;5.158;2023-07-31T10:26:31;100513.94;;;18.87;100.00
65329;BME280;51941;52.210;5.158;2023-07-31T10:28:58;100523.09;;;18.86;100.00
65329;BME280;51941;52.210;5.158;2023-07-31T10:31:25;100511.47;;;18.91;100.00
65329;BME280;51941;52.210;5.158;2023-07-31T10:33:56;100518.53;;;19.01;100.00
65329;BME280;51941;52.210;5.158;2023-07-31T10:36:23;100514.19;;;19.05;100.00
65329;BME280;51941;52.210;5.158;2023-07-31T10:38:50;100503.66;;;19.08;100.00
65329;BME280;51941;52.210;5.158;2023-07-31T10:41:17;100510.63;;;19.09;100.00
65329;BME280;51941;52.210;5.158;2023-07-31T10:43:45;100514.19;;;19.05;100.00
65329;BME280;51941;52.210;5.158;2023-07-31T10:46:13;100512.88;;;19.02;100.00
65329;BME280;51941;52.210;5.158;2023-07-31T10:48:41;100518.13;;;18.94;100.00
65329;BME280;51941;52.210;5.158;2023-07-31T10:51:10;100510.88;;;18.94;100.00
65329;BME280;51941;52.210;5.158;2023-07-31T10:53:40;100513.63;;;18.89;100.00
65329;BME280;51941;52.210;5.158;2023-07-31T10:56:08;100520.88;;;18.88;100.00
65329;BME280;51941;52.210;5.158;2023-07-31T10:58:37;100502.19;;;18.83;100.00
65329;BME280;51941;52.210;5.158;2023-07-31T11:01:05;100510.34;;;18.78;100.00
65329;BME280;51941;52.210;5.158;2023-07-31T11:03:43;100514.41;;;18.76;100.00
65329;BME280;51941;52.210;5.158;2023-07-31T11:06:12;100511.91;;;18.79;100.00
65329;BME280;51941;52.210;5.158;2023-07-31T11:08:43;100518.81;;;18.85;100.00
65329;BME280;51941;52.210;5.158;2023-07-31T11:11:11;100517.34;;;18.93;100.00
65329;BME280;51941;52.210;5.158;2023-07-31T11:13:44;100512.38;;;19.00;100.00
65329;BME280;51941;52.210;5.158;2023-07-31T11:16:12;100506.72;;;19.02;100.00
65329;BME280;51941;52.210;5.158;2023-07-31T11:18:40;100508.84;;;19.18;100.00
65329;BME280;51941;52.210;5.158;2023-07-31T11:21:08;100509.25;;;19.25;100.00
65329;BME280;51941;52.210;5.158;2023-07-31T11:23:38;100504.59;;;19.31;100.00
65329;BME280;51941;52.210;5.158;2023-07-31T11:26:05;100510.59;;;19.42;100.00
65329;BME280;51941;52.210;5.158;2023-07-31T11:28:33;100508.00;;;19.37;100.00
65329;BME280;51941;52.210;5.158;2023-07-31T11:31:01;100505.06;;;19.33;100.00
65329;BME280;51941;52.210;5.158;2023-07-31T11:33:28;100508.50;;;19.39;100.00
65329;BME280;51941;52.210;5.158;2023-07-31T11:35:54;100503.53;;;19.46;100.00
65329;BME280;51941;52.210;5.158;2023-07-31T11:38:22;100496.19;;;19.51;100.00
65329;BME280;51941;52.210;5.158;2023-07-31T11:40:51;100489.63;;;19.44;100.00
65329;BME280;51941;52.210;5.158;2023-07-31T11:43:20;100512.41;;;19.46;100.00
65329;BME280;51941;52.210;5.158;2023-07-31T11:45:47;100495.88;;;19.39;100.00
65329;BME280;51941;52.210;5.158;2023-07-31T11:48:22;100498.13;;;19.32;100.00
65329;BME280;51941;52.210;5.158;2023-07-31T11:50:51;100490.69;;;19.29;100.00
65329;BME280;51941;52.210;5.158;2023-07-31T11:53:20;100495.13;;;19.34;100.00
65329;BME280;51941;52.210;5.158;2023-07-31T11:55:50;100498.88;;;19.38;100.00
65329;BME280;51941;52.210;5.158;2023-07-31T11:58:18;100497.16;;;19.42;100.00
65329;BME280;51941;52.210;5.158;2023-07-31T12:00:45;100498.88;;;19.38;100.00
65329;BME280;51941;52.210;5.158;2023-07-31T12:03:13;100501.56;;;19.38;100.00
65329;BME280;51941;52.210;5.158;2023-07-31T12:05:40;100501.25;;;19.39;100.00
65329;BME280;51941;52.210;5.158;2023-07-31T12:08:11;100500.50;;;19.34;100.00
65329;BME280;51941;52.210;5.158;2023-07-31T12:10:38;100508.56;;;19.34;100.00
65329;BME280;51941;52.210;5.158;2023-07-31T12:13:09;100515.00;;;19.33;100.00
65329;BME280;51941;52.210;5.158;2023-07-31T12:15:40;100514.97;;;19.38;100.00
65329;BME280;51941;52.210;5.158;2023-07-31T12:18:09;100509.31;;;19.39;100.00
65329;BME280;51941;52.210;5.158;2023-07-31T12:20:40;100505.03;;;19.38;100.00
65329;BME280;51941;52.210;5.158;2023-07-31T12:23:07;100492.47;;;19.34;100.00
65329;BME280;51941;52.210;5.158;2023-07-31T12:25:39;100487.91;;;19.34;100.00
65329;BME280;51941;52.210;5.158;2023-07-31T12:28:08;100483.44;;;19.29;100.00
65329;BME280;51941;52.210;5.158;2023-07-31T12:30:38;100474.28;;;19.31;100.00
65329;BME280;51941;52.210;5.158;2023-07-31T12:33:05;100471.41;;;19.41;100.00
65329;BME280;51941;52.210;5.158;2023-07-31T12:35:41;100469.53;;;19.55;100.00
65329;BME280;51941;52.210;5.158;2023-07-31T12:38:09;100467.25;;;19.62;100.00
65329;BME280;51941;52.210;5.158;2023-07-31T12:40:37;100465.25;;;19.67;100.00
65329;BME280;51941;52.210;5.158;2023-07-31T12:43:05;100465.25;;;19.67;100.00